createdAt,value
2023-04-15T00:01:00.790Z,85.61
2023-04-15T00:11:06.048Z,85.30
2023-04-15T00:21:09.234Z,85.70
2023-04-15T00:31:11.614Z,85.75
2023-04-15T00:41:13.986Z,85.69
2023-04-15T00:51:16.393Z,85.71
2023-04-15T01:01:22.737Z,85.91
2023-04-15T01:11:25.712Z,85.73
2023-04-15T01:21:28.385Z,85.60
2023-04-15T01:31:30.874Z,85.25
2023-04-15T01:41:33.211Z,85.33
2023-04-15T01:51:35.510Z,85.11
2023-04-15T02:01:38.429Z,84.76
2023-04-15T02:11:40.744Z,84.64
2023-04-15T02:21:43.043Z,84.64
2023-04-15T02:31:45.875Z,84.56
2023-04-15T02:41:52.120Z,84.47
2023-04-15T02:51:55.630Z,84.72
2023-04-15T03:02:01.185Z,85.17
2023-04-15T03:12:03.646Z,84.92
2023-04-15T03:22:06.143Z,85.33
2023-04-15T05:05:10.537Z,98.41
2023-04-15T05:15:12.942Z,96.06
2023-04-15T05:25:15.311Z,91.71
2023-04-15T05:35:18.062Z,88.57
2023-04-15T05:45:20.497Z,86.98
2023-04-15T05:55:22.869Z,84.06
2023-04-15T06:05:25.411Z,80.45
2023-04-15T06:15:27.698Z,79.78
2023-04-15T06:25:30.026Z,80.27
2023-04-15T06:35:32.503Z,81.64
2023-04-15T06:45:35.616Z,76.25
2023-04-15T06:55:37.945Z,78.23
2023-04-15T07:05:40.722Z,77.79
2023-04-15T07:15:43.029Z,75.79
2023-04-15T07:25:45.396Z,75.34
2023-04-15T07:35:47.874Z,77.19
2023-04-15T07:45:50.375Z,76.67
2023-04-15T07:55:52.685Z,75.50
2023-04-15T08:05:55.026Z,73.76
2023-04-15T08:16:20.191Z,72.24
2023-04-15T08:26:22.967Z,72.27
2023-04-15T08:36:25.353Z,71.95
2023-04-15T08:46:28.211Z,69.51
2023-04-15T08:56:33.300Z,63.80
2023-04-15T09:06:35.918Z,68.98
2023-04-15T09:17:04.817Z,66.06
2023-04-15T09:27:07.425Z,64.05
2023-04-15T09:37:11.204Z,63.88
2023-04-15T09:47:28.376Z,63.47
2023-04-15T09:57:37.927Z,63.62
2023-04-15T10:07:43.771Z,63.78
2023-04-15T10:17:48.574Z,59.95
2023-04-15T10:27:53.101Z,57.95
2023-04-15T10:37:55.429Z,54.74
2023-04-15T10:48:00.951Z,51.75
2023-04-15T10:58:04.702Z,54.31
2023-04-15T11:08:07.231Z,52.01
2023-04-15T11:18:19.638Z,51.36
2023-04-15T11:28:26.704Z,56.38
2023-04-15T11:38:29.146Z,56.58
2023-04-15T11:48:34.332Z,58.32
2023-04-15T11:58:38.401Z,58.20
2023-04-15T12:08:56.035Z,60.57
2023-04-15T12:18:59.845Z,60.87
2023-04-15T12:29:04.298Z,61.50
2023-04-15T12:39:07.014Z,61.32
2023-04-15T12:49:09.724Z,59.13
2023-04-15T12:59:13.183Z,57.73
2023-04-15T13:09:15.928Z,58.32
2023-04-15T13:19:18.240Z,57.65
2023-04-15T13:29:20.798Z,56.67
2023-04-15T13:39:23.592Z,55.19
2023-04-15T13:49:26.036Z,57.80
2023-04-15T13:59:28.323Z,60.77
2023-04-15T14:09:30.682Z,63.35
2023-04-15T14:19:33.526Z,63.57
2023-04-15T14:29:36.237Z,65.11
2023-04-15T14:39:38.617Z,65.98
2023-04-15T14:49:40.978Z,67.58
2023-04-15T14:59:43.440Z,70.33
2023-04-15T15:09:45.786Z,71.86
2023-04-15T15:19:48.149Z,70.29
2023-04-15T15:29:50.799Z,68.85
2023-04-15T15:39:53.478Z,67.76
2023-04-15T15:49:55.874Z,67.19
2023-04-15T16:00:10.299Z,66.86
2023-04-15T16:10:14.392Z,68.33
2023-04-15T16:20:16.974Z,67.47
2023-04-15T16:30:21.096Z,68.87
2023-04-15T16:40:25.537Z,69.18
2023-04-15T16:50:27.957Z,69.44
2023-04-15T17:00:31.452Z,71.07
2023-04-15T17:10:33.877Z,72.65
2023-04-15T17:20:36.336Z,73.89
2023-04-15T17:30:38.684Z,74.91
2023-04-15T17:40:40.984Z,75.43
2023-04-15T17:50:43.355Z,75.83
2023-04-15T18:00:46.953Z,77.07
2023-04-15T18:10:49.347Z,77.73
2023-04-15T18:20:51.666Z,79.59
2023-04-15T18:30:54.010Z,80.20
2023-04-15T18:40:56.311Z,80.41
2023-04-15T18:50:59.003Z,80.24
2023-04-15T19:01:01.469Z,79.65
2023-04-15T19:11:03.837Z,81.34
2023-04-15T19:21:06.490Z,80.39
2023-04-15T19:31:08.847Z,79.63
2023-04-15T19:41:11.390Z,78.83
2023-04-15T19:51:13.767Z,78.83
2023-04-15T20:01:16.128Z,78.45
2023-04-15T20:11:18.508Z,78.43
2023-04-15T20:21:20.898Z,78.24
2023-04-15T20:31:23.335Z,78.51
2023-04-15T20:41:25.861Z,77.77
2023-04-15T20:51:28.229Z,77.94
2023-04-15T21:01:30.644Z,77.58
2023-04-15T21:11:56.911Z,78.88
2023-04-15T21:21:55.778Z,79.59
2023-04-15T21:31:58.214Z,80.45
2023-04-15T21:42:00.710Z,80.34
2023-04-15T21:52:04.821Z,81.83
2023-04-15T22:10:11.997Z,81.52
2023-04-15T22:20:14.314Z,79.53
2023-04-15T22:30:16.684Z,79.59
2023-04-15T22:40:19.288Z,79.91
2023-04-15T22:50:21.647Z,79.92
2023-04-15T23:00:23.970Z,79.35
2023-04-15T23:10:26.303Z,80.25
2023-04-15T23:20:28.587Z,82.67
2023-04-15T23:30:31.052Z,83.35
2023-04-15T23:40:33.452Z,82.39
2023-04-15T23:50:35.902Z,83.47
